METAR Data
IDs: Format: Raw Decoded Include TAF

Data at: 1504 UTC 21 Apr 2021

METAR for:KMXO (Monticello Rgnl, IA, US)
Text:KMXO 211455Z AUTO 32010KT 10SM CLR 05/M08 A3016 RMK AO2
Temperature: 5.0°C ( 41°F)
Dewpoint: -8.0°C ( 18°F) [RH = 38%]
Pressure (altimeter):30.16 inches Hg (1021.4 mb)
Winds:from the NW (320 degrees) at 12 MPH (10 knots; 5.1 m/s)
Visibility:10 or more sm (16+ km)
Ceiling:at least 12,000 feet AGL
Clouds:sky clear below 12,000 feet AGL
QC Flag:automated observation with no human augmentation